createdAt,value
2023-01-30T00:01:21.741Z,100794.78
2023-01-30T00:03:50.060Z,100797.56
2023-01-30T00:06:18.861Z,100798.69
2023-01-30T00:08:47.533Z,100793.50
2023-01-30T00:11:18.148Z,100794.38
2023-01-30T00:13:47.653Z,100794.44
2023-01-30T00:16:16.445Z,100793.81
2023-01-30T00:18:45.903Z,100801.00
2023-01-30T00:21:15.929Z,100794.84
2023-01-30T00:23:44.684Z,100802.03
2023-01-30T00:26:13.929Z,100809.22
2023-01-30T00:28:42.343Z,100803.16
2023-01-30T00:31:10.874Z,100813.91
2023-01-30T00:33:40.530Z,100821.16
2023-01-30T00:36:09.319Z,100823.88
2023-01-30T00:38:37.756Z,100828.63
2023-01-30T00:41:06.463Z,100834.19
2023-01-30T00:43:53.109Z,100835.31
2023-01-30T00:46:53.826Z,100840.69
2023-01-30T00:49:22.258Z,100843.41
2023-01-30T00:51:50.588Z,100858.50
2023-01-30T00:54:18.840Z,100853.38
2023-01-30T00:56:47.112Z,100850.88
2023-01-30T00:59:15.429Z,100863.38
2023-01-30T01:01:43.914Z,100862.66
2023-01-30T01:04:12.746Z,100865.44
2023-01-30T01:06:41.500Z,100863.81
2023-01-30T01:09:09.849Z,100864.81
2023-01-30T01:11:38.328Z,100876.41
2023-01-30T01:14:07.450Z,100877.28
2023-01-30T01:16:36.942Z,100873.75
2023-01-30T01:19:05.873Z,100883.38
2023-01-30T01:21:34.222Z,100877.22
2023-01-30T01:24:02.587Z,100883.47
2023-01-30T01:26:31.343Z,100880.06
2023-01-30T01:29:00.489Z,100890.81
2023-01-30T01:31:28.944Z,100895.41
2023-01-30T01:33:58.164Z,100897.28
2023-01-30T01:36:52.027Z,100891.22
2023-01-30T01:39:14.762Z,100893.13
2023-01-30T01:41:43.061Z,100893.19
2023-01-30T01:44:13.617Z,100898.41
2023-01-30T01:46:52.097Z,100891.41
2023-01-30T01:49:30.632Z,100892.25
2023-01-30T01:52:06.889Z,100895.78
2023-01-30T01:54:37.922Z,100899.31
2023-01-30T01:57:12.889Z,100901.13
2023-01-30T01:59:47.584Z,100900.28
2023-01-30T02:02:15.759Z,100898.63
2023-01-30T02:05:03.229Z,100901.28
2023-01-30T02:07:41.245Z,100899.50
2023-01-30T02:10:15.031Z,100903.91
2023-01-30T02:12:44.893Z,100903.03
2023-01-30T02:15:13.626Z,100905.72
2023-01-30T02:17:42.002Z,100899.66
2023-01-30T02:20:28.501Z,100902.34
2023-01-30T02:23:21.271Z,100899.66
2023-01-30T02:26:32.307Z,100899.69
2023-01-30T02:29:24.059Z,100905.88
2023-01-30T02:31:55.190Z,100902.31
2023-01-30T02:34:34.764Z,100902.28
2023-01-30T02:37:23.103Z,100911.00
2023-01-30T02:40:12.358Z,100915.50
2023-01-30T02:42:57.985Z,100929.69
2023-01-30T02:45:45.030Z,100933.19
2023-01-30T02:48:28.398Z,100930.53
2023-01-30T02:51:15.091Z,100931.44
2023-01-30T02:53:43.378Z,100933.25
2023-01-30T02:56:11.661Z,100929.78
2023-01-30T02:58:45.496Z,100930.63
2023-01-30T03:01:47.808Z,100928.00
2023-01-30T03:04:50.128Z,100934.19
2023-01-30T03:07:26.851Z,100936.81
2023-01-30T03:10:10.003Z,100936.00
2023-01-30T03:12:52.844Z,100933.41
2023-01-30T03:15:41.860Z,100926.41
2023-01-30T03:18:11.256Z,100933.56
2023-01-30T03:20:41.217Z,100933.59
2023-01-30T03:23:10.000Z,100938.00
2023-01-30T03:25:40.570Z,100939.75
2023-01-30T03:28:10.738Z,100944.06
2023-01-30T03:30:39.089Z,100949.28
2023-01-30T03:33:07.495Z,100952.75
2023-01-30T03:35:36.032Z,100955.38
2023-01-30T03:38:04.535Z,100961.59
2023-01-30T03:40:33.377Z,100963.44
2023-01-30T03:43:01.733Z,100959.06
2023-01-30T03:45:30.075Z,100962.53
2023-01-30T03:47:58.398Z,100967.75
2023-01-30T03:50:26.708Z,100974.72
2023-01-30T03:52:55.511Z,100976.53
2023-01-30T03:55:23.888Z,100981.03
2023-01-30T03:57:56.671Z,100987.13
2023-01-30T04:00:25.046Z,100988.81
2023-01-30T04:02:54.640Z,100989.66
2023-01-30T04:05:22.954Z,100991.34
2023-01-30T04:07:52.071Z,100995.66
2023-01-30T04:10:20.935Z,100995.59
2023-01-30T04:12:49.605Z,100999.97
2023-01-30T04:15:18.277Z,101005.25
2023-01-30T04:17:48.701Z,101006.06
2023-01-30T04:20:17.463Z,101002.56
2023-01-30T04:22:46.060Z,101006.97
2023-01-30T04:25:14.426Z,101003.34
2023-01-30T04:27:42.727Z,101000.72
2023-01-30T04:30:11.614Z,101015.72
2023-01-30T04:32:39.852Z,101020.22
2023-01-30T04:35:08.536Z,101023.84
2023-01-30T04:37:36.786Z,101024.75
2023-01-30T04:40:05.574Z,101021.22
2023-01-30T04:42:33.885Z,101022.09
2023-01-30T04:45:02.177Z,101027.38
2023-01-30T04:47:30.456Z,101029.22
2023-01-30T04:49:58.823Z,101032.81
2023-01-30T04:52:27.076Z,101029.31
2023-01-30T04:54:55.346Z,101034.59
2023-01-30T04:57:23.568Z,101043.47
2023-01-30T04:59:51.828Z,101040.91
2023-01-30T05:02:21.817Z,101040.03
2023-01-30T05:04:51.672Z,101043.50
2023-01-30T05:07:20.007Z,101042.63
2023-01-30T05:09:48.374Z,101053.19
2023-01-30T05:12:16.622Z,101060.25
2023-01-30T05:14:44.969Z,101070.03
2023-01-30T05:17:13.285Z,101065.66
2023-01-30T05:19:41.619Z,101069.22
2023-01-30T05:22:09.997Z,101070.16
2023-01-30T05:24:38.264Z,101071.06
2023-01-30T05:27:06.966Z,101064.88
2023-01-30T05:29:35.247Z,101062.31
2023-01-30T05:32:04.657Z,101063.22
2023-01-30T05:34:32.942Z,101071.09
2023-01-30T05:37:01.194Z,101072.88
2023-01-30T05:39:29.455Z,101079.84
2023-01-30T05:41:57.753Z,101076.31
2023-01-30T05:44:26.071Z,101086.03
2023-01-30T05:46:54.432Z,101085.22
2023-01-30T05:49:22.735Z,101092.28
2023-01-30T05:51:51.710Z,101086.97
2023-01-30T05:54:20.056Z,101098.44
2023-01-30T05:56:51.401Z,101098.38
2023-01-30T05:59:19.770Z,101100.97
2023-01-30T06:01:48.271Z,101100.00
2023-01-30T06:04:16.617Z,101101.75
2023-01-30T06:06:44.894Z,101114.88
2023-01-30T06:09:13.303Z,101113.13
2023-01-30T06:11:41.584Z,101128.09
2023-01-30T06:14:09.929Z,101128.97
2023-01-30T06:16:38.293Z,101130.66
2023-01-30T06:19:06.612Z,101135.00
2023-01-30T06:21:34.872Z,101135.81
2023-01-30T06:24:03.333Z,101132.25
2023-01-30T06:26:31.612Z,101134.81
2023-01-30T06:28:59.956Z,101140.06
2023-01-30T06:31:28.340Z,101143.63
2023-01-30T06:33:56.631Z,101148.84
2023-01-30T06:36:24.918Z,101148.00
2023-01-30T06:38:53.247Z,101142.72
2023-01-30T06:41:21.629Z,101147.13
2023-01-30T06:43:50.069Z,101140.91
2023-01-30T06:46:18.516Z,101150.59
2023-01-30T06:48:46.913Z,101146.22
2023-01-30T06:51:15.269Z,101142.72
2023-01-30T06:53:43.884Z,101152.41
2023-01-30T06:56:12.180Z,101157.72
2023-01-30T06:58:40.521Z,101159.50
2023-01-30T07:01:08.856Z,101169.16
2023-01-30T07:03:37.175Z,101172.69
2023-01-30T07:06:05.613Z,101184.97
2023-01-30T07:08:33.914Z,101184.16
2023-01-30T07:11:02.264Z,101200.03
2023-01-30T07:13:30.611Z,101186.03
2023-01-30T07:15:58.964Z,101192.25
2023-01-30T07:18:27.241Z,101184.41
2023-01-30T07:20:55.563Z,101195.00
2023-01-30T07:23:23.852Z,101186.25
2023-01-30T07:25:52.379Z,101193.28
2023-01-30T07:28:20.754Z,101191.59
2023-01-30T07:30:53.486Z,101197.81
2023-01-30T07:33:21.869Z,101203.13
2023-01-30T07:35:50.216Z,101201.44
2023-01-30T07:38:18.576Z,101206.78
2023-01-30T07:40:46.919Z,101214.69
2023-01-30T07:43:15.667Z,101217.31
2023-01-30T07:45:49.273Z,101213.84
2023-01-30T07:48:19.915Z,101216.44
2023-01-30T07:50:48.561Z,101219.97
2023-01-30T07:53:19.463Z,101227.88
2023-01-30T07:55:47.847Z,101225.31
2023-01-30T07:58:17.521Z,101235.88
2023-01-30T08:00:46.664Z,101246.44
2023-01-30T08:03:16.539Z,101246.47
2023-01-30T08:05:47.618Z,101243.88
2023-01-30T08:08:16.637Z,101241.28
2023-01-30T08:10:45.396Z,101241.31
2023-01-30T08:13:13.762Z,101258.06
2023-01-30T08:15:42.097Z,101235.25
2023-01-30T08:18:10.386Z,101251.09
2023-01-30T08:20:38.722Z,101245.81
2023-01-30T08:23:07.259Z,101253.72
2023-01-30T08:25:36.397Z,101260.78
2023-01-30T08:28:05.884Z,101271.34
2023-01-30T08:30:34.352Z,101270.50
2023-01-30T08:33:02.627Z,101269.59
2023-01-30T08:35:30.949Z,101275.78
2023-01-30T08:37:59.295Z,101281.06
2023-01-30T08:40:27.665Z,101281.97
2023-01-30T08:42:56.011Z,101285.47
2023-01-30T08:45:24.475Z,101275.84
2023-01-30T08:47:52.749Z,101274.97
2023-01-30T08:50:21.325Z,101278.53
2023-01-30T08:52:50.118Z,101290.81
2023-01-30T08:55:19.349Z,101297.81
2023-01-30T08:57:47.847Z,101298.75
2023-01-30T09:00:17.390Z,101303.19
2023-01-30T09:02:49.094Z,101295.31
2023-01-30T09:05:17.483Z,101306.72
2023-01-30T09:07:46.245Z,101303.25
2023-01-30T09:10:14.754Z,101295.41
2023-01-30T09:12:43.191Z,101287.50
2023-01-30T09:15:12.386Z,101298.94
2023-01-30T09:17:40.870Z,101296.31
2023-01-30T09:20:10.493Z,101296.34
2023-01-30T09:22:39.287Z,101311.28
2023-01-30T09:25:09.262Z,101312.16
2023-01-30T09:27:38.035Z,101313.03
2023-01-30T09:30:07.729Z,101316.56
2023-01-30T09:32:38.336Z,101317.47
2023-01-30T09:35:07.329Z,101325.38
2023-01-30T09:37:36.047Z,101326.25
2023-01-30T09:40:05.417Z,101328.91
2023-01-30T09:42:55.215Z,101327.16
2023-01-30T09:45:38.595Z,101328.97
2023-01-30T09:48:19.680Z,101327.19
2023-01-30T09:51:00.502Z,101322.81
2023-01-30T09:53:38.402Z,101330.72
2023-01-30T09:56:07.455Z,101331.56
2023-01-30T09:59:00.544Z,101341.25
2023-01-30T10:01:51.888Z,101352.66
2023-01-30T10:04:31.933Z,101350.03
2023-01-30T10:07:43.865Z,101349.13
2023-01-30T10:10:43.853Z,101346.53
2023-01-30T10:13:44.203Z,101352.63
2023-01-30T10:16:37.174Z,101343.88
2023-01-30T10:19:36.487Z,101351.78
2023-01-30T10:22:37.800Z,101357.91
2023-01-30T10:25:21.838Z,101355.28
2023-01-30T10:28:00.809Z,101354.41
2023-01-30T10:30:29.478Z,101355.28
2023-01-30T10:33:07.254Z,101368.41
2023-01-30T10:35:42.775Z,101367.53
2023-01-30T10:38:51.225Z,101377.19
2023-01-30T10:41:37.685Z,101362.28
2023-01-30T10:44:15.470Z,101355.28
2023-01-30T10:47:02.215Z,101336.88
2023-01-30T10:49:37.897Z,101349.16
2023-01-30T10:52:20.997Z,101353.53
2023-01-30T10:55:01.790Z,101341.22
2023-01-30T10:57:57.838Z,101349.13
2023-01-30T11:00:57.621Z,101361.34
2023-01-30T11:03:37.657Z,101365.72
2023-01-30T11:06:25.830Z,101369.19
2023-01-30T11:08:55.730Z,101363.06
2023-01-30T11:11:45.438Z,101369.19
2023-01-30T11:14:14.349Z,101364.81
2023-01-30T11:17:03.527Z,101371.81
2023-01-30T11:19:35.998Z,101361.31
2023-01-30T11:22:07.977Z,101363.03
2023-01-30T11:24:46.854Z,101370.03
2023-01-30T11:27:31.094Z,101368.28
2023-01-30T11:30:17.941Z,101370.03
2023-01-30T11:32:50.112Z,101372.66
2023-01-30T11:35:25.605Z,101373.56
2023-01-30T11:37:54.418Z,101361.31
2023-01-30T11:40:32.031Z,101360.41
2023-01-30T11:43:05.583Z,101370.06
2023-01-30T11:45:47.456Z,101368.28
2023-01-30T11:48:33.121Z,101367.41
2023-01-30T11:51:12.031Z,101356.94
2023-01-30T11:53:46.931Z,101364.84
2023-01-30T11:56:23.448Z,101364.81
2023-01-30T11:59:17.669Z,101359.63
2023-01-30T12:01:46.233Z,101364.03
2023-01-30T12:04:15.583Z,101350.88
2023-01-30T12:06:45.474Z,101366.66
2023-01-30T12:09:40.749Z,101358.75
2023-01-30T12:12:47.913Z,101356.16
2023-01-30T12:15:28.373Z,101350.88
2023-01-30T12:18:36.658Z,101358.78
2023-01-30T12:21:14.966Z,101364.91
2023-01-30T12:24:09.858Z,101358.78
2023-01-30T12:26:49.077Z,101359.66
2023-01-30T12:29:41.018Z,101359.69
2023-01-30T12:32:20.641Z,101360.53
2023-01-30T12:34:49.314Z,101365.81
2023-01-30T12:37:35.639Z,101367.56
2023-01-30T12:40:24.937Z,101359.66
2023-01-30T12:43:29.878Z,101359.66
2023-01-30T12:46:27.221Z,101375.44
2023-01-30T12:49:11.698Z,101377.19
2023-01-30T12:52:06.620Z,101376.31
2023-01-30T12:54:59.007Z,101393.84
2023-01-30T12:57:48.687Z,101384.22
2023-01-30T13:00:27.050Z,101399.09
2023-01-30T13:03:01.448Z,101404.34
2023-01-30T13:05:38.870Z,101393.84
2023-01-30T13:08:51.797Z,101403.50
2023-01-30T13:11:47.648Z,101414.88
2023-01-30T13:14:48.229Z,101409.59
2023-01-30T13:17:26.246Z,101424.50
2023-01-30T13:20:20.059Z,101422.75
2023-01-30T13:22:57.451Z,101429.75
2023-01-30T13:25:59.527Z,101427.09
2023-01-30T13:28:32.890Z,101413.94
2023-01-30T13:31:03.518Z,101419.19
2023-01-30T13:33:36.325Z,101414.81
2023-01-30T13:36:25.935Z,101419.13
2023-01-30T13:39:06.250Z,101421.75
2023-01-30T13:41:41.652Z,101426.94
2023-01-30T13:44:30.008Z,101433.06
2023-01-30T13:47:19.425Z,101437.44
2023-01-30T13:50:08.897Z,101443.53
2023-01-30T13:52:43.072Z,101445.25
2023-01-30T13:55:17.684Z,101459.25
2023-01-30T13:58:34.203Z,101467.09
2023-01-30T14:01:04.907Z,101469.66
2023-01-30T14:03:36.352Z,101480.97
2023-01-30T14:06:26.415Z,101476.53
2023-01-30T14:09:00.074Z,101480.91
2023-01-30T14:11:35.742Z,101488.78
2023-01-30T14:14:28.032Z,101478.25
2023-01-30T14:17:09.143Z,101491.28
2023-01-30T14:19:41.020Z,101503.44
2023-01-30T14:22:35.163Z,101501.72
2023-01-30T14:25:31.025Z,101513.03
2023-01-30T14:28:02.617Z,101510.41
2023-01-30T14:30:38.636Z,101521.78
2023-01-30T14:33:34.316Z,101517.31
2023-01-30T14:36:02.632Z,101530.44
2023-01-30T14:38:35.527Z,101538.28
2023-01-30T14:41:03.784Z,101536.47
2023-01-30T14:43:44.507Z,101546.03
2023-01-30T14:46:21.690Z,101541.63
2023-01-30T14:48:59.127Z,101546.84
2023-01-30T14:51:38.164Z,101542.44
2023-01-30T14:54:15.512Z,101546.75
2023-01-30T14:56:56.407Z,101552.88
2023-01-30T14:59:42.216Z,101551.16
2023-01-30T15:02:16.276Z,101539.81
2023-01-30T15:05:10.993Z,101545.94
2023-01-30T15:08:12.333Z,101560.81
2023-01-30T15:11:07.571Z,101559.88
2023-01-30T15:14:02.140Z,101566.91
2023-01-30T15:16:46.775Z,101568.59
2023-01-30T15:19:34.363Z,101564.19
2023-01-30T15:22:40.966Z,101566.84
2023-01-30T15:25:36.239Z,101573.84
2023-01-30T15:28:39.476Z,101577.28
2023-01-30T15:31:12.663Z,101584.38
2023-01-30T15:33:52.762Z,101580.88
2023-01-30T15:36:30.242Z,101582.69
2023-01-30T15:39:07.174Z,101588.81
2023-01-30T15:41:42.853Z,101592.41
2023-01-30T15:44:14.387Z,101590.75
2023-01-30T15:46:45.907Z,101599.63
2023-01-30T15:49:46.370Z,101609.34
2023-01-30T15:52:18.893Z,101610.31
2023-01-30T15:54:54.963Z,101619.13
2023-01-30T15:57:30.173Z,101618.34
2023-01-30T16:00:00.728Z,101620.97
2023-01-30T16:02:34.570Z,101621.91
2023-01-30T16:05:16.457Z,101625.44
2023-01-30T16:07:47.384Z,101631.59
2023-01-30T16:10:21.831Z,101643.91
2023-01-30T16:12:53.729Z,101640.47
2023-01-30T16:15:35.813Z,101639.63
2023-01-30T16:18:16.132Z,101647.53
2023-01-30T16:21:05.701Z,101636.22
2023-01-30T16:23:39.933Z,101648.53
2023-01-30T16:26:13.639Z,101648.56
2023-01-30T16:28:42.433Z,101657.41
2023-01-30T16:31:12.682Z,101653.06
2023-01-30T16:33:41.082Z,101661.84
2023-01-30T16:36:21.575Z,101667.16
2023-01-30T16:38:51.611Z,101670.69
2023-01-30T16:41:28.674Z,101676.84
2023-01-30T16:44:23.112Z,101676.88
2023-01-30T16:47:21.729Z,101673.47
2023-01-30T16:49:51.500Z,101668.25
2023-01-30T16:52:24.151Z,101663.00
2023-01-30T16:55:02.712Z,101657.75
2023-01-30T16:57:37.107Z,101666.53
2023-01-30T17:00:30.480Z,101670.91
2023-01-30T17:03:05.238Z,101669.19
2023-01-30T17:05:44.209Z,101683.25
2023-01-30T17:08:49.090Z,101686.78
2023-01-30T17:11:38.138Z,101672.78
2023-01-30T17:14:21.122Z,101678.03
2023-01-30T17:17:10.890Z,101681.56
2023-01-30T17:19:39.486Z,101682.47
2023-01-30T17:22:18.724Z,101688.63
2023-01-30T17:24:47.239Z,101680.72
2023-01-30T17:27:16.919Z,101686.00
2023-01-30T17:29:46.852Z,101685.13
2023-01-30T17:32:16.997Z,101682.50
2023-01-30T17:34:46.094Z,101685.16
2023-01-30T17:37:20.687Z,101699.19
2023-01-30T17:39:49.046Z,101699.19
2023-01-30T17:42:22.843Z,101707.09
2023-01-30T17:44:51.212Z,101712.38
2023-01-30T17:47:19.546Z,101711.50
2023-01-30T17:49:47.892Z,101717.66
2023-01-30T17:52:16.161Z,101723.81
2023-01-30T17:54:44.834Z,101723.81
2023-01-30T17:57:16.553Z,101725.56
2023-01-30T17:59:45.302Z,101729.06
2023-01-30T18:02:14.246Z,101725.59
2023-01-30T18:04:42.562Z,101719.44
2023-01-30T18:07:15.471Z,101727.31
2023-01-30T18:09:44.235Z,101736.09
2023-01-30T18:12:12.520Z,101735.25
2023-01-30T18:14:40.839Z,101732.59
2023-01-30T18:17:10.515Z,101738.75
2023-01-30T18:19:38.846Z,101734.34
2023-01-30T18:22:07.217Z,101735.22
2023-01-30T18:24:35.635Z,101734.34
2023-01-30T18:27:03.953Z,101735.22
2023-01-30T18:29:32.214Z,101738.72
2023-01-30T18:32:05.937Z,101744.91
2023-01-30T18:34:34.723Z,101739.63
2023-01-30T18:37:03.013Z,101737.84
2023-01-30T18:39:32.754Z,101739.59
2023-01-30T18:42:02.944Z,101740.47
2023-01-30T18:44:31.454Z,101732.53
2023-01-30T18:46:59.701Z,101733.41
2023-01-30T18:49:28.133Z,101731.63
2023-01-30T18:51:56.379Z,101742.16
2023-01-30T18:54:24.723Z,101753.56
2023-01-30T18:56:53.008Z,101752.66
2023-01-30T18:59:21.334Z,101742.09
2023-01-30T19:01:49.590Z,101749.09
2023-01-30T19:04:17.914Z,101745.53
2023-01-30T19:06:46.452Z,101749.91
2023-01-30T19:09:17.355Z,101748.13
2023-01-30T19:12:04.083Z,101743.72
2023-01-30T19:14:32.619Z,101739.28
2023-01-30T19:17:01.392Z,101735.72
2023-01-30T19:19:29.727Z,101737.44
2023-01-30T19:21:58.100Z,101730.31
2023-01-30T19:24:26.468Z,101736.44
2023-01-30T19:26:54.787Z,101726.75
2023-01-30T19:29:23.159Z,101730.22
2023-01-30T19:31:51.513Z,101733.72
2023-01-30T19:34:20.018Z,101731.00
2023-01-30T19:36:48.452Z,101730.03
2023-01-30T19:39:16.738Z,101720.25
2023-01-30T19:41:45.317Z,101719.31
2023-01-30T19:44:14.119Z,101725.44
2023-01-30T19:46:42.525Z,101718.31
2023-01-30T19:49:12.821Z,101712.09
2023-01-30T19:51:42.627Z,101715.63
2023-01-30T19:54:12.644Z,101717.31
2023-01-30T19:56:43.278Z,101706.72
2023-01-30T19:59:14.087Z,101703.13
2023-01-30T20:01:42.666Z,101695.09
2023-01-30T20:04:11.025Z,101696.81
2023-01-30T20:06:44.222Z,101687.03
2023-01-30T20:09:12.717Z,101693.16
2023-01-30T20:11:42.704Z,101694.06
2023-01-30T20:14:12.200Z,101688.66
2023-01-30T20:16:40.600Z,101686.81
2023-01-30T20:19:13.730Z,101684.09
2023-01-30T20:21:42.120Z,101677.84
2023-01-30T20:24:13.973Z,101667.13
2023-01-30T20:26:42.917Z,101663.56
2023-01-30T20:29:11.946Z,101662.66
2023-01-30T20:31:40.770Z,101666.03
2023-01-30T20:34:12.600Z,101671.31
2023-01-30T20:36:40.899Z,101671.19
2023-01-30T20:39:09.366Z,101667.47
2023-01-30T20:41:38.752Z,101659.41
2023-01-30T20:44:09.574Z,101663.63
2023-01-30T20:46:41.938Z,101653.00
2023-01-30T20:49:21.383Z,101643.22
2023-01-30T20:51:52.272Z,101643.09
2023-01-30T20:54:24.276Z,101635.00
2023-01-30T20:56:54.682Z,101636.56
2023-01-30T20:59:25.149Z,101639.13
2023-01-30T21:01:54.565Z,101631.09
2023-01-30T21:04:25.096Z,101628.22
2023-01-30T21:06:53.569Z,101628.88
2023-01-30T21:09:24.056Z,101625.16
2023-01-30T21:11:53.879Z,101625.16
2023-01-30T21:14:24.027Z,101623.50
2023-01-30T21:16:53.424Z,101621.84
2023-01-30T21:19:22.314Z,101615.63
2023-01-30T21:21:54.843Z,101610.16
2023-01-30T21:24:26.399Z,101600.28
2023-01-30T21:26:55.863Z,101593.00
2023-01-30T21:29:26.608Z,101603.34
2023-01-30T21:31:56.468Z,101592.56
2023-01-30T21:34:24.964Z,101600.44
2023-01-30T21:37:11.566Z,101592.09
2023-01-30T21:39:58.108Z,101586.44
2023-01-30T21:42:45.077Z,101583.41
2023-01-30T21:45:13.473Z,101581.41
2023-01-30T21:47:41.828Z,101575.72
2023-01-30T21:50:10.895Z,101580.69
2023-01-30T21:52:39.182Z,101579.41
2023-01-30T21:55:07.720Z,101581.63
2023-01-30T21:57:36.555Z,101576.19
2023-01-30T22:00:05.957Z,101584.03
2023-01-30T22:02:34.220Z,101588.25
2023-01-30T22:05:02.479Z,101591.66
2023-01-30T22:07:31.980Z,101599.34
2023-01-30T22:10:02.427Z,101596.34
2023-01-30T22:12:32.530Z,101596.75
2023-01-30T22:15:00.856Z,101589.31
2023-01-30T22:17:29.231Z,101591.69
2023-01-30T22:19:57.540Z,101587.84
2023-01-30T22:22:26.513Z,101591.94
2023-01-30T22:24:54.902Z,101587.28
2023-01-30T22:27:23.179Z,101584.38
2023-01-30T22:29:51.703Z,101580.56
2023-01-30T22:32:20.017Z,101576.72
2023-01-30T22:34:48.337Z,101572.69
2023-01-30T22:37:17.270Z,101574.16
2023-01-30T22:39:45.821Z,101567.44
2023-01-30T22:42:14.631Z,101566.13
2023-01-30T22:44:42.978Z,101569.47
2023-01-30T22:47:11.401Z,101570.28
2023-01-30T22:49:40.483Z,101571.25
2023-01-30T22:52:08.789Z,101567.56
2023-01-30T22:54:37.233Z,101566.00
2023-01-30T22:57:05.579Z,101558.16
2023-01-30T22:59:33.900Z,101561.53
2023-01-30T23:02:02.305Z,101556.41
2023-01-30T23:04:30.691Z,101562.66
2023-01-30T23:07:00.435Z,101551.88
2023-01-30T23:09:28.800Z,101553.38
2023-01-30T23:12:16.778Z,101546.44
2023-01-30T23:14:46.389Z,101544.00
2023-01-30T23:17:32.806Z,101547.84
2023-01-30T23:20:01.157Z,101549.22
2023-01-30T23:22:29.538Z,101546.00
2023-01-30T23:24:57.898Z,101548.56
2023-01-30T23:27:26.740Z,101547.47
2023-01-30T23:29:54.992Z,101540.84
2023-01-30T23:32:24.599Z,101546.47
2023-01-30T23:34:52.994Z,101547.03
2023-01-30T23:37:41.124Z,101536.81
2023-01-30T23:40:10.245Z,101537.88
2023-01-30T23:42:38.820Z,101535.34
2023-01-30T23:45:07.573Z,101533.69
2023-01-30T23:47:36.249Z,101540.97
2023-01-30T23:50:04.736Z,101535.13
2023-01-30T23:52:33.179Z,101538.03
2023-01-30T23:55:01.490Z,101542.66
2023-01-30T23:57:29.839Z,101549.00
2023-01-30T23:59:58.130Z,101548.31
